createdAt,value
2023-04-15T00:01:13.402Z,5.99
2023-04-15T00:03:41.362Z,6.10
2023-04-15T00:06:09.844Z,6.02
2023-04-15T00:08:37.145Z,5.91
2023-04-15T00:11:05.996Z,5.94
2023-04-15T00:13:34.210Z,5.73
2023-04-15T00:16:01.828Z,5.93
2023-04-15T00:18:32.269Z,5.85
2023-04-15T00:20:59.600Z,5.75
2023-04-15T00:23:26.862Z,5.69
2023-04-15T00:25:54.188Z,5.87
2023-04-15T00:28:21.697Z,5.88
2023-04-15T00:30:48.993Z,5.83
2023-04-15T00:33:19.182Z,5.97
2023-04-15T00:35:47.439Z,5.91
2023-04-15T00:38:14.760Z,5.99
2023-04-15T00:40:42.625Z,5.88
2023-04-15T00:43:10.255Z,5.86
2023-04-15T00:45:37.653Z,5.96
2023-04-15T00:48:04.990Z,5.97
2023-04-15T00:50:33.071Z,6.14
2023-04-15T00:53:00.350Z,6.08
2023-04-15T00:55:28.145Z,6.13
2023-04-15T00:57:56.362Z,6.08
2023-04-15T01:00:23.732Z,6.13
2023-04-15T01:02:51.128Z,6.26
2023-04-15T01:05:19.501Z,6.27
2023-04-15T01:07:47.984Z,6.22
2023-04-15T01:10:15.301Z,6.13
2023-04-15T01:12:43.562Z,5.83
2023-04-15T01:15:11.202Z,5.92
2023-04-15T01:17:39.325Z,5.68
2023-04-15T01:20:10.590Z,5.82
2023-04-15T01:22:38.495Z,5.82
2023-04-15T01:25:13.186Z,5.86
2023-04-15T01:27:41.172Z,5.89
2023-04-15T01:30:09.213Z,5.93
2023-04-15T01:32:36.978Z,5.91
2023-04-15T01:35:04.491Z,5.93
2023-04-15T01:37:32.102Z,6.03
2023-04-15T01:39:59.889Z,5.98
2023-04-15T01:42:27.779Z,6.04
2023-04-15T01:44:55.162Z,6.04
2023-04-15T01:47:22.574Z,6.08
2023-04-15T01:49:49.973Z,6.16
2023-04-15T01:52:17.257Z,6.18
2023-04-15T01:54:44.590Z,6.18
2023-04-15T01:57:12.964Z,6.27
2023-04-15T01:59:41.118Z,6.17
2023-04-15T02:02:08.535Z,6.14
2023-04-15T02:04:35.830Z,6.04
2023-04-15T02:07:03.075Z,6.08
2023-04-15T02:09:30.432Z,6.05
2023-04-15T02:11:57.757Z,6.00
2023-04-15T02:14:25.065Z,6.06
2023-04-15T02:16:54.984Z,5.96
2023-04-15T02:19:22.270Z,6.11
2023-04-15T02:21:49.528Z,6.06
2023-04-15T02:24:18.375Z,5.92
2023-04-15T02:26:46.758Z,6.14
2023-04-15T02:29:14.078Z,6.17
2023-04-15T02:31:42.308Z,6.15
2023-04-15T02:34:09.682Z,6.18
2023-04-15T02:36:37.011Z,6.19
2023-04-15T02:39:05.875Z,6.16
2023-04-15T02:41:33.166Z,6.21
2023-04-15T02:44:00.811Z,6.27
2023-04-15T02:46:30.823Z,6.19
2023-04-15T02:49:00.363Z,6.13
2023-04-15T02:51:31.300Z,6.01
2023-04-15T02:53:58.684Z,6.07
2023-04-15T02:56:26.135Z,6.08
2023-04-15T02:58:56.168Z,6.08
2023-04-15T03:01:24.327Z,6.05
2023-04-15T03:03:51.817Z,6.06
2023-04-15T03:06:19.332Z,6.06
2023-04-15T03:08:46.759Z,6.02
2023-04-15T03:11:15.319Z,6.01
2023-04-15T03:13:43.464Z,6.00
2023-04-15T03:16:21.900Z,6.09
2023-04-15T03:18:49.358Z,6.10
2023-04-15T03:21:16.712Z,6.15
2023-04-15T03:23:45.445Z,6.17
2023-04-15T03:26:24.885Z,6.28
2023-04-15T03:28:53.037Z,6.27
2023-04-15T03:31:20.583Z,6.34
2023-04-15T03:33:48.011Z,6.32
2023-04-15T03:36:15.755Z,6.35
2023-04-15T03:38:43.297Z,6.36
2023-04-15T03:41:10.653Z,6.32
2023-04-15T03:43:37.926Z,6.36
2023-04-15T03:46:05.333Z,6.41
2023-04-15T03:48:32.626Z,6.35
2023-04-15T03:50:59.913Z,6.32
2023-04-15T03:53:27.234Z,6.27
2023-04-15T03:55:54.531Z,6.37
2023-04-15T03:58:21.883Z,6.33
2023-04-15T04:00:49.102Z,6.40
2023-04-15T04:03:16.756Z,6.38
2023-04-15T04:05:44.614Z,6.34
2023-04-15T04:08:13.984Z,6.32
2023-04-15T04:10:41.429Z,6.36
2023-04-15T04:13:08.741Z,6.30
2023-04-15T04:15:36.376Z,6.26
2023-04-15T04:18:03.856Z,6.25
2023-04-15T04:20:32.182Z,6.14
2023-04-15T04:22:59.483Z,6.22
2023-04-15T04:25:27.361Z,6.23
2023-04-15T04:27:54.650Z,6.15
2023-04-15T04:30:22.339Z,6.17
2023-04-15T04:32:50.198Z,6.13
2023-04-15T04:35:17.535Z,6.20
2023-04-15T04:37:44.831Z,6.30
2023-04-15T04:40:12.644Z,6.40
2023-04-15T04:42:40.265Z,6.61
2023-04-15T04:45:08.734Z,6.72
2023-04-15T04:47:36.357Z,6.83
2023-04-15T04:50:03.821Z,6.86
2023-04-15T04:52:31.178Z,6.71
2023-04-15T04:54:58.434Z,6.78
2023-04-15T04:57:25.705Z,6.64
2023-04-15T04:59:53.009Z,6.80
2023-04-15T05:02:20.614Z,6.90
2023-04-15T05:04:47.967Z,7.07
2023-04-15T05:07:15.977Z,7.13
2023-04-15T05:09:43.247Z,7.08
2023-04-15T05:12:15.019Z,7.14
2023-04-15T05:14:42.465Z,7.11
2023-04-15T05:17:09.768Z,7.12
2023-04-15T05:19:37.106Z,7.02
2023-04-15T05:22:04.435Z,7.30
2023-04-15T05:24:31.726Z,7.31
2023-04-15T05:26:58.948Z,7.19
2023-04-15T05:29:26.292Z,6.99
2023-04-15T05:31:53.617Z,7.08
2023-04-15T05:34:20.900Z,7.20
2023-04-15T05:36:48.148Z,7.28
2023-04-15T05:39:15.548Z,7.45
2023-04-15T05:41:42.829Z,7.60
2023-04-15T05:44:10.233Z,7.46
2023-04-15T05:46:37.896Z,7.46
2023-04-15T05:49:05.194Z,7.62
2023-04-15T05:51:32.459Z,7.77
2023-04-15T05:53:59.814Z,8.23
2023-04-15T05:56:27.294Z,8.34
2023-04-15T05:58:54.578Z,8.17
2023-04-15T06:01:22.238Z,8.02
2023-04-15T06:03:49.752Z,8.16
2023-04-15T06:06:17.142Z,7.98
2023-04-15T06:08:44.491Z,7.96
2023-04-15T06:11:11.811Z,7.92
2023-04-15T06:13:39.044Z,8.01
2023-04-15T06:16:06.944Z,7.98
2023-04-15T06:18:34.263Z,8.03
2023-04-15T06:21:01.719Z,7.97
2023-04-15T06:23:29.060Z,8.02
2023-04-15T06:25:56.367Z,8.12
2023-04-15T06:28:23.629Z,8.29
2023-04-15T06:30:50.935Z,8.37
2023-04-15T06:35:10.720Z,8.60
2023-04-15T06:37:38.094Z,8.98
2023-04-15T06:40:06.299Z,9.22
2023-04-15T06:42:34.105Z,9.50
2023-04-15T06:45:01.775Z,9.55
2023-04-15T06:47:29.149Z,10.01
2023-04-15T06:49:56.499Z,9.93
2023-04-15T06:52:23.784Z,9.57
2023-04-15T06:54:51.212Z,9.49
2023-04-15T06:57:18.490Z,9.59
2023-04-15T06:59:46.163Z,9.68
2023-04-15T07:02:14.136Z,9.85
2023-04-15T07:04:41.515Z,9.97
2023-04-15T07:07:09.522Z,9.94
2023-04-15T07:09:36.884Z,10.13
2023-04-15T07:12:04.256Z,10.00
2023-04-15T07:14:31.878Z,10.18
2023-04-15T07:16:59.176Z,10.29
2023-04-15T07:19:26.683Z,10.10
2023-04-15T07:21:54.015Z,10.06
2023-04-15T07:24:23.248Z,10.06
2023-04-15T07:26:50.532Z,10.01
2023-04-15T07:29:17.869Z,10.15
2023-04-15T07:31:45.150Z,10.06
2023-04-15T07:34:12.455Z,10.23
2023-04-15T07:36:40.435Z,10.48
2023-04-15T07:39:07.850Z,10.44
2023-04-15T07:41:35.275Z,10.38
2023-04-15T07:44:02.706Z,10.57
2023-04-15T07:46:30.062Z,10.68
2023-04-15T07:48:57.505Z,10.62
2023-04-15T07:51:24.906Z,10.69
2023-04-15T07:53:52.913Z,10.71
2023-04-15T07:56:20.823Z,10.54
2023-04-15T07:58:48.087Z,10.75
2023-04-15T08:01:15.358Z,10.65
2023-04-15T08:03:43.247Z,10.81
2023-04-15T08:06:10.728Z,10.64
2023-04-15T08:08:38.007Z,10.80
2023-04-15T08:11:05.472Z,10.79
2023-04-15T08:13:32.767Z,10.95
2023-04-15T08:16:22.812Z,11.61
2023-04-15T08:18:51.590Z,11.89
2023-04-15T08:21:19.392Z,11.72
2023-04-15T08:23:47.591Z,11.71
2023-04-15T08:26:14.838Z,12.12
2023-04-15T08:28:42.466Z,12.47
2023-04-15T08:31:09.946Z,12.36
2023-04-15T08:33:37.289Z,12.28
2023-04-15T08:36:04.789Z,12.16
2023-04-15T08:38:32.182Z,11.99
2023-04-15T08:41:00.795Z,12.30
2023-04-15T08:43:30.395Z,12.58
2023-04-15T08:45:59.141Z,12.86
2023-04-15T08:48:26.641Z,12.91
2023-04-15T08:50:53.932Z,12.36
2023-04-15T08:53:21.609Z,12.24
2023-04-15T08:55:52.558Z,12.10
2023-04-15T08:58:19.909Z,11.84
2023-04-15T09:00:48.864Z,11.77
2023-04-15T09:03:17.557Z,11.61
2023-04-15T09:05:44.987Z,11.74
2023-04-15T09:08:12.773Z,11.87
2023-04-15T09:10:40.137Z,11.92
2023-04-15T09:13:07.424Z,12.18
2023-04-15T09:15:34.709Z,12.53
2023-04-15T09:18:04.491Z,13.11
2023-04-15T09:20:31.758Z,13.67
2023-04-15T09:22:59.064Z,13.10
2023-04-15T09:25:28.308Z,13.17
2023-04-15T09:28:01.196Z,12.69
2023-04-15T09:30:29.166Z,12.81
2023-04-15T09:33:00.870Z,12.99
2023-04-15T09:35:28.294Z,13.69
2023-04-15T09:38:03.713Z,13.98
2023-04-15T09:40:41.265Z,13.68
2023-04-15T09:43:09.743Z,13.60
2023-04-15T09:45:37.256Z,13.62
2023-04-15T09:48:21.589Z,13.83
2023-04-15T09:50:49.536Z,13.93
2023-04-15T09:53:18.311Z,13.47
2023-04-15T09:55:52.567Z,13.85
2023-04-15T09:58:23.733Z,13.73
2023-04-15T10:00:51.949Z,13.91
2023-04-15T10:03:20.719Z,13.89
2023-04-15T10:05:49.765Z,14.13
2023-04-15T10:08:19.161Z,14.19
2023-04-15T10:10:47.463Z,14.15
2023-04-15T10:13:19.564Z,13.97
2023-04-15T10:15:53.523Z,14.18
2023-04-15T10:18:21.884Z,14.31
2023-04-15T10:20:52.030Z,14.56
2023-04-15T10:23:20.577Z,14.47
2023-04-15T10:25:49.011Z,14.22
2023-04-15T10:28:16.918Z,13.88
2023-04-15T10:30:44.182Z,13.75
2023-04-15T10:33:11.444Z,13.96
2023-04-15T10:35:39.323Z,14.27
2023-04-15T10:38:31.466Z,14.05
2023-04-15T10:41:34.682Z,13.73
2023-04-15T10:44:03.577Z,13.65
2023-04-15T10:46:38.701Z,13.63
2023-04-15T10:49:17.079Z,13.50
2023-04-15T10:51:46.020Z,13.30
2023-04-15T10:54:18.075Z,13.26
2023-04-15T10:56:45.509Z,13.46
2023-04-15T10:59:12.780Z,13.45
2023-04-15T11:02:15.977Z,13.34
2023-04-15T11:04:55.950Z,13.17
2023-04-15T11:07:36.963Z,12.78
2023-04-15T11:10:25.705Z,12.72
2023-04-15T11:12:54.261Z,12.86
2023-04-15T11:15:32.546Z,12.83
2023-04-15T11:18:19.360Z,12.21
2023-04-15T11:20:59.655Z,11.27
2023-04-15T11:23:39.454Z,10.87
2023-04-15T11:26:09.926Z,10.62
2023-04-15T11:31:27.910Z,10.43
2023-04-15T11:33:57.032Z,10.30
2023-04-15T11:34:21.176Z,10.37
2023-04-15T11:36:27.946Z,10.31
2023-04-15T11:38:55.610Z,10.31
2023-04-15T11:41:25.988Z,10.28
2023-04-15T11:43:53.295Z,10.07
2023-04-15T11:46:21.970Z,10.11
2023-04-15T11:48:49.306Z,9.93
2023-04-15T11:51:16.721Z,9.95
2023-04-15T11:53:47.916Z,9.82
2023-04-15T11:56:21.972Z,10.01
2023-04-15T11:58:52.058Z,9.96
2023-04-15T12:01:19.492Z,10.07
2023-04-15T12:03:47.373Z,10.32
2023-04-15T12:06:21.803Z,10.67
2023-04-15T12:08:59.106Z,11.13
2023-04-15T12:11:26.255Z,11.86
2023-04-15T12:13:57.045Z,12.37
2023-04-15T12:16:25.034Z,12.39
2023-04-15T12:18:52.935Z,12.59
2023-04-15T12:21:21.044Z,13.18
2023-04-15T12:23:50.258Z,13.35
2023-04-15T12:26:18.337Z,13.88
2023-04-15T12:28:45.627Z,13.89
2023-04-15T12:31:15.813Z,13.85
2023-04-15T12:33:43.569Z,13.98
2023-04-15T12:36:10.931Z,13.98
2023-04-15T12:38:38.282Z,14.33
2023-04-15T12:41:05.652Z,14.24
2023-04-15T12:43:33.013Z,14.50
2023-04-15T12:46:00.280Z,14.90
2023-04-15T12:48:27.525Z,14.66
2023-04-15T12:50:54.823Z,14.63
2023-04-15T12:53:22.409Z,14.51
2023-04-15T12:55:49.757Z,14.62
2023-04-15T12:58:17.075Z,14.63
2023-04-15T13:00:44.831Z,14.67
2023-04-15T13:03:12.237Z,14.45
2023-04-15T13:05:39.911Z,14.56
2023-04-15T13:08:07.250Z,14.32
2023-04-15T13:10:36.572Z,13.99
2023-04-15T13:13:04.160Z,13.83
2023-04-15T13:15:31.539Z,14.03
2023-04-15T13:17:58.817Z,13.86
2023-04-15T13:20:27.092Z,14.09
2023-04-15T13:22:54.416Z,14.05
2023-04-15T13:25:21.839Z,14.40
2023-04-15T13:27:50.186Z,14.56
2023-04-15T13:30:17.662Z,13.83
2023-04-15T13:32:44.999Z,13.83
2023-04-15T13:35:12.338Z,14.03
2023-04-15T13:37:39.677Z,14.02
2023-04-15T13:40:07.858Z,14.07
2023-04-15T13:42:35.203Z,13.96
2023-04-15T13:45:02.499Z,13.85
2023-04-15T13:47:29.754Z,13.90
2023-04-15T13:49:57.602Z,13.60
2023-04-15T13:52:24.895Z,13.72
2023-04-15T13:55:17.991Z,13.60
2023-04-15T13:57:39.490Z,13.42
2023-04-15T14:00:07.562Z,13.27
2023-04-15T14:02:35.966Z,12.75
2023-04-15T14:05:03.469Z,10.72
2023-04-15T14:07:31.018Z,10.12
2023-04-15T14:09:58.411Z,10.09
2023-04-15T14:12:25.671Z,9.87
2023-04-15T14:14:53.063Z,9.75
2023-04-15T14:17:20.421Z,9.74
2023-04-15T14:19:47.694Z,9.81
2023-04-15T14:22:14.938Z,10.08
2023-04-15T14:24:42.246Z,10.25
2023-04-15T14:27:11.260Z,10.38
2023-04-15T14:29:38.616Z,10.32
2023-04-15T14:32:12.353Z,10.58
2023-04-15T14:34:40.743Z,10.75
2023-04-15T14:37:08.049Z,10.96
2023-04-15T14:39:35.323Z,10.77
2023-04-15T14:42:02.558Z,10.82
2023-04-15T14:47:02.031Z,10.79
2023-04-15T14:49:30.456Z,10.97
2023-04-15T14:51:57.704Z,10.99
2023-04-15T14:54:24.958Z,10.70
2023-04-15T14:56:52.229Z,10.76
2023-04-15T14:59:19.497Z,10.77
2023-04-15T15:01:46.830Z,10.64
2023-04-15T15:04:14.397Z,10.77
2023-04-15T15:06:41.950Z,10.82
2023-04-15T15:09:09.270Z,10.89
2023-04-15T15:11:36.578Z,10.97
2023-04-15T15:14:03.993Z,10.95
2023-04-15T15:16:31.729Z,10.99
2023-04-15T15:18:59.029Z,10.98
2023-04-15T15:21:27.154Z,10.84
2023-04-15T15:23:54.493Z,10.74
2023-04-15T15:26:22.036Z,10.88
2023-04-15T15:28:50.790Z,10.89
2023-04-15T15:31:18.117Z,11.08
2023-04-15T15:33:45.441Z,11.18
2023-04-15T15:36:12.754Z,11.30
2023-04-15T15:38:40.776Z,11.16
2023-04-15T15:41:08.041Z,11.25
2023-04-15T15:43:35.355Z,11.17
2023-04-15T15:46:02.913Z,11.38
2023-04-15T15:48:30.355Z,12.03
2023-04-15T15:50:57.682Z,12.86
2023-04-15T15:53:25.938Z,13.00
2023-04-15T15:55:53.968Z,13.57
2023-04-15T15:58:21.446Z,13.74
2023-04-15T16:00:48.770Z,13.39
2023-04-15T16:03:16.359Z,13.51
2023-04-15T16:05:44.019Z,13.16
2023-04-15T16:08:11.308Z,12.43
2023-04-15T16:10:38.620Z,12.23
2023-04-15T16:13:05.892Z,11.87
2023-04-15T16:15:33.301Z,11.27
2023-04-15T16:18:00.727Z,11.27
2023-04-15T16:20:28.938Z,11.08
2023-04-15T16:22:57.125Z,11.00
2023-04-15T16:25:24.928Z,10.94
2023-04-15T16:28:01.424Z,10.81
2023-04-15T16:30:30.724Z,10.71
2023-04-15T16:32:58.077Z,10.61
2023-04-15T16:35:25.382Z,10.59
2023-04-15T16:37:52.667Z,10.42
2023-04-15T16:40:19.969Z,10.41
2023-04-15T16:42:47.258Z,10.29
2023-04-15T16:45:14.581Z,10.23
2023-04-15T16:47:41.900Z,10.12
2023-04-15T16:50:09.704Z,10.15
2023-04-15T16:52:37.009Z,10.00
2023-04-15T16:55:05.227Z,9.96
2023-04-15T16:57:40.496Z,9.81
2023-04-15T17:00:20.288Z,9.66
2023-04-15T17:02:47.731Z,9.50
2023-04-15T17:05:15.118Z,9.40
2023-04-15T17:07:42.361Z,9.31
2023-04-15T17:10:10.153Z,9.27
2023-04-15T17:12:37.683Z,9.17
2023-04-15T17:15:05.684Z,9.07
2023-04-15T17:17:33.152Z,8.95
2023-04-15T17:20:00.473Z,8.84
2023-04-15T17:22:27.787Z,8.77
2023-04-15T17:24:55.054Z,8.75
2023-04-15T17:27:22.776Z,8.68
2023-04-15T17:29:50.003Z,8.61
2023-04-15T17:32:17.234Z,8.58
2023-04-15T17:34:49.520Z,8.48
2023-04-15T17:37:18.694Z,8.38
2023-04-15T17:39:46.280Z,8.37
2023-04-15T17:42:13.666Z,8.28
2023-04-15T17:44:41.218Z,8.24
2023-04-15T17:47:08.459Z,8.33
2023-04-15T17:49:37.841Z,8.33
2023-04-15T17:52:05.287Z,8.26
2023-04-15T17:54:32.558Z,8.25
2023-04-15T17:57:00.288Z,8.12
2023-04-15T17:59:27.902Z,8.10
2023-04-15T18:01:55.500Z,8.06
2023-04-15T18:04:26.486Z,7.96
2023-04-15T18:06:54.276Z,8.01
2023-04-15T18:09:21.801Z,8.07
2023-04-15T18:11:49.272Z,8.05
2023-04-15T18:14:30.550Z,8.18
2023-04-15T18:16:58.306Z,8.23
2023-04-15T18:19:25.856Z,8.25
2023-04-15T18:21:53.145Z,8.25
2023-04-15T18:24:20.651Z,8.20
2023-04-15T18:26:49.195Z,8.17
2023-04-15T18:29:16.899Z,8.15
2023-04-15T18:31:44.271Z,8.05
2023-04-15T18:34:11.544Z,8.04
2023-04-15T18:36:38.820Z,7.97
2023-04-15T18:39:06.224Z,7.89
2023-04-15T18:41:33.771Z,7.79
2023-04-15T18:44:01.080Z,7.96
2023-04-15T18:46:28.385Z,7.85
2023-04-15T18:48:55.654Z,7.82
2023-04-15T18:51:22.906Z,7.79
2023-04-15T18:53:50.485Z,7.75
2023-04-15T18:56:17.740Z,7.73
2023-04-15T18:59:08.586Z,7.69
2023-04-15T19:01:32.420Z,7.75
2023-04-15T19:03:59.894Z,7.77
2023-04-15T19:06:28.684Z,7.68
2023-04-15T19:08:57.983Z,7.65
2023-04-15T19:11:26.009Z,7.59
2023-04-15T19:13:53.408Z,7.55
2023-04-15T19:16:21.129Z,7.45
2023-04-15T19:18:48.464Z,7.53
2023-04-15T19:21:15.757Z,7.31
2023-04-15T19:23:43.219Z,7.42
2023-04-15T19:26:11.255Z,7.38
2023-04-15T19:28:38.538Z,7.32
2023-04-15T19:31:05.939Z,7.30
2023-04-15T19:33:33.356Z,7.38
2023-04-15T19:36:05.551Z,7.45
2023-04-15T19:38:34.984Z,7.43
2023-04-15T19:41:02.322Z,7.47
2023-04-15T19:43:29.866Z,7.49
2023-04-15T19:45:57.272Z,7.37
2023-04-15T19:48:24.760Z,7.23
2023-04-15T19:50:52.067Z,7.12
2023-04-15T19:53:19.324Z,7.15
2023-04-15T19:55:48.406Z,7.15
2023-04-15T19:58:16.173Z,7.01
2023-04-15T20:00:43.534Z,6.98
2023-04-15T20:03:10.991Z,6.64
2023-04-15T20:05:38.386Z,6.81
2023-04-15T20:08:05.744Z,6.78
2023-04-15T20:10:33.020Z,6.78
2023-04-15T20:13:00.523Z,6.81
2023-04-15T20:15:27.828Z,6.81
2023-04-15T20:17:55.207Z,6.76
2023-04-15T20:20:22.582Z,6.74
2023-04-15T20:22:49.927Z,6.69
2023-04-15T20:25:17.251Z,6.69
2023-04-15T20:27:44.760Z,6.67
2023-04-15T20:30:12.111Z,6.68
2023-04-15T20:32:39.436Z,6.67
2023-04-15T20:35:07.303Z,6.63
2023-04-15T20:37:34.879Z,6.52
2023-04-15T20:40:02.422Z,6.53
2023-04-15T20:42:34.335Z,6.53
2023-04-15T20:45:02.144Z,6.50
2023-04-15T20:47:30.000Z,6.46
2023-04-15T20:49:57.384Z,6.42
2023-04-15T20:52:24.628Z,6.38
2023-04-15T20:54:52.010Z,6.27
2023-04-15T20:57:20.230Z,6.28
2023-04-15T20:59:47.595Z,6.35
2023-04-15T21:02:14.999Z,6.39
2023-04-15T21:04:42.357Z,6.34
2023-04-15T21:07:10.023Z,6.39
2023-04-15T21:09:41.317Z,6.40
2023-04-15T21:12:09.304Z,6.38
2023-04-15T21:14:37.090Z,6.46
2023-04-15T21:17:09.256Z,6.49
2023-04-15T21:19:37.615Z,6.59
2023-04-15T21:22:04.985Z,6.55
2023-04-15T21:24:32.243Z,6.58
2023-04-15T21:26:59.493Z,6.58
2023-04-15T21:29:26.825Z,6.59
2023-04-15T21:31:54.225Z,6.62
2023-04-15T21:34:21.650Z,6.58
2023-04-15T21:36:49.041Z,6.48
2023-04-15T21:39:17.140Z,6.34
2023-04-15T21:41:44.470Z,6.46
2023-04-15T21:44:14.401Z,6.46
2023-04-15T21:46:46.005Z,6.38
2023-04-15T21:49:13.959Z,6.18
2023-04-15T21:51:41.327Z,6.23
2023-04-15T21:54:08.610Z,6.33
2023-04-15T21:56:36.873Z,6.18
2023-04-15T21:59:04.402Z,6.22
2023-04-15T22:01:32.028Z,6.21
2023-04-15T22:03:59.665Z,6.24
2023-04-15T22:06:27.200Z,6.17
2023-04-15T22:08:57.565Z,6.17
2023-04-15T22:11:30.366Z,6.10
2023-04-15T22:13:58.376Z,6.06
2023-04-15T22:16:26.546Z,6.02
2023-04-15T22:18:54.843Z,6.04
2023-04-15T22:21:22.305Z,5.94
2023-04-15T22:23:49.613Z,6.00
2023-04-15T22:26:16.892Z,6.01
2023-04-15T22:28:44.192Z,5.98
2023-04-15T22:31:11.634Z,5.97
2023-04-15T22:33:39.104Z,5.91
2023-04-15T22:36:06.479Z,5.94
2023-04-15T22:38:33.787Z,5.94
2023-04-15T22:41:01.315Z,5.91
2023-04-15T22:43:28.664Z,5.87
2023-04-15T22:45:56.632Z,5.98
2023-04-15T22:48:24.036Z,6.00
2023-04-15T22:50:51.643Z,5.87
2023-04-15T22:53:19.011Z,5.88
2023-04-15T22:55:49.488Z,5.91
2023-04-15T22:58:18.356Z,5.83
2023-04-15T23:00:45.911Z,5.76
2023-04-15T23:03:13.334Z,5.83
2023-04-15T23:05:41.294Z,5.81
2023-04-15T23:08:08.749Z,5.82
2023-04-15T23:10:36.023Z,5.78
2023-04-15T23:13:03.263Z,5.79
2023-04-15T23:15:30.570Z,5.74
2023-04-15T23:17:57.991Z,5.69
2023-04-15T23:20:25.369Z,5.55
2023-04-15T23:22:52.640Z,5.65
2023-04-15T23:25:22.291Z,5.65
2023-04-15T23:27:49.609Z,5.59
2023-04-15T23:30:16.936Z,5.58
2023-04-15T23:32:44.306Z,5.44
2023-04-15T23:35:11.723Z,5.46
2023-04-15T23:37:39.004Z,5.47
2023-04-15T23:40:07.011Z,5.42
2023-04-15T23:42:34.295Z,5.42
2023-04-15T23:45:01.595Z,5.40
2023-04-15T23:47:28.936Z,5.35
2023-04-15T23:49:56.522Z,5.27
2023-04-15T23:52:24.053Z,5.33
2023-04-15T23:54:51.448Z,5.24
2023-04-15T23:57:18.886Z,5.23
2023-04-15T23:59:46.256Z,5.27
